createdAt,value
2019-05-01T00:01:09.006Z,80.77
2019-05-01T00:03:49.987Z,78.57
2019-05-01T00:06:24.392Z,79.87
2019-05-01T00:08:54.771Z,79.53
2019-05-01T00:11:25.190Z,77.47
2019-05-01T00:13:55.654Z,78.60
2019-05-01T00:16:26.228Z,75.72
2019-05-01T00:18:56.728Z,77.47
2019-05-01T00:21:27.146Z,74.07
2019-05-01T00:23:57.584Z,75.40
2019-05-01T00:26:28.028Z,74.62
2019-05-01T00:28:58.532Z,75.42
2019-05-01T00:31:30.044Z,73.72
2019-05-01T00:34:00.553Z,69.70
2019-05-01T00:36:31.015Z,73.22
2019-05-01T00:39:01.459Z,72.53
2019-05-01T00:41:33.475Z,70.28
2019-05-01T00:44:03.946Z,71.77
2019-05-01T00:46:37.039Z,70.52
2019-05-01T00:49:07.412Z,67.45
2019-05-01T00:51:37.862Z,70.20
2019-05-01T00:54:08.152Z,66.15
2019-05-01T00:56:46.670Z,68.15
2019-05-01T00:59:36.516Z,66.00
2019-05-01T01:02:25.518Z,65.62
2019-05-01T01:04:56.028Z,67.25
2019-05-01T01:07:26.326Z,65.00
2019-05-01T01:09:56.782Z,65.15
2019-05-01T01:12:27.163Z,64.92
2019-05-01T01:14:57.580Z,62.65
2019-05-01T01:17:27.993Z,64.22
2019-05-01T01:19:58.449Z,65.22
2019-05-01T01:22:28.905Z,64.42
2019-05-01T01:24:59.353Z,60.40
2019-05-01T01:27:29.765Z,63.05
2019-05-01T01:30:00.285Z,61.90
2019-05-01T01:32:30.616Z,62.35
2019-05-01T01:35:01.493Z,60.38
2019-05-01T01:37:32.855Z,59.45
2019-05-01T01:40:03.329Z,59.90
2019-05-01T01:42:34.732Z,59.77
2019-05-01T01:45:27.151Z,58.25
2019-05-01T01:48:14.097Z,58.55
2019-05-01T01:50:44.969Z,59.33
2019-05-01T01:53:17.606Z,58.63
2019-05-01T01:55:47.836Z,56.10
2019-05-01T01:58:18.270Z,57.93
2019-05-01T02:01:11.918Z,56.90
2019-05-01T02:03:45.593Z,55.23
2019-05-01T02:06:16.052Z,57.33
2019-05-01T02:08:56.331Z,55.15
2019-05-01T02:11:18.608Z,55.30
2019-05-01T02:13:48.953Z,54.88
2019-05-01T02:16:19.248Z,54.18
2019-05-01T02:18:49.645Z,54.35
2019-05-01T02:21:20.127Z,52.83
2019-05-01T02:23:50.623Z,52.20
2019-05-01T02:26:23.654Z,52.38
2019-05-01T02:29:04.871Z,53.33
2019-05-01T02:31:40.005Z,53.40
2019-05-01T02:34:10.289Z,51.20
2019-05-01T02:36:40.730Z,52.93
2019-05-01T02:39:11.140Z,52.20
2019-05-01T02:41:43.237Z,52.05
2019-05-01T02:44:24.083Z,51.18
2019-05-01T02:46:54.500Z,50.92
2019-05-01T02:49:48.123Z,49.40
2019-05-01T02:52:19.571Z,49.45
2019-05-01T02:54:49.941Z,49.95
2019-05-01T02:57:20.326Z,48.33
2019-05-01T02:59:52.892Z,48.85
2019-05-01T03:02:24.762Z,49.55
2019-05-01T03:04:55.317Z,48.90
2019-05-01T03:07:26.785Z,49.13
2019-05-01T03:09:57.206Z,47.08
2019-05-01T03:12:27.943Z,45.92
2019-05-01T03:14:59.026Z,47.95
2019-05-01T03:17:57.050Z,46.60
2019-05-01T03:20:34.303Z,46.45
2019-05-01T03:23:21.829Z,44.65
2019-05-01T03:25:52.091Z,46.23
2019-05-01T03:28:22.550Z,45.58
2019-05-01T03:30:52.938Z,44.15
2019-05-01T03:33:23.424Z,44.75
2019-05-01T03:35:53.829Z,45.33
2019-05-01T03:38:24.154Z,42.62
2019-05-01T03:40:54.582Z,43.50
2019-05-01T03:43:25.009Z,44.20
2019-05-01T03:45:55.697Z,42.55
2019-05-01T03:48:26.287Z,41.83
2019-05-01T03:50:57.986Z,42.53
2019-05-01T03:53:28.363Z,42.58
2019-05-01T03:55:58.611Z,41.13
2019-05-01T03:58:29.155Z,40.85
2019-05-01T04:01:15.719Z,41.20
2019-05-01T04:03:51.961Z,40.83
2019-05-01T04:06:22.603Z,39.55
2019-05-01T04:08:52.968Z,40.10
2019-05-01T04:11:23.489Z,40.03
2019-05-01T04:13:53.829Z,39.63
2019-05-01T04:16:24.512Z,38.73
2019-05-01T04:18:54.823Z,39.78
2019-05-01T04:21:27.979Z,38.40
2019-05-01T04:23:58.400Z,38.80
2019-05-01T04:26:29.011Z,39.78
2019-05-01T04:29:05.737Z,38.98
2019-05-01T04:31:50.137Z,37.00
2019-05-01T04:34:26.557Z,37.78
2019-05-01T04:36:58.733Z,36.88
2019-05-01T04:39:29.167Z,37.40
2019-05-01T04:41:59.636Z,37.23
2019-05-01T04:44:30.148Z,37.53
2019-05-01T04:47:00.673Z,35.60
2019-05-01T04:49:31.118Z,36.17
2019-05-01T04:52:01.589Z,35.88
2019-05-01T04:54:32.112Z,35.33
2019-05-01T04:57:02.447Z,36.42
2019-05-01T04:59:32.936Z,34.88
2019-05-01T05:02:05.125Z,34.50
2019-05-01T05:04:35.423Z,35.15
2019-05-01T05:07:05.886Z,34.63
2019-05-01T05:09:42.565Z,33.65
2019-05-01T05:12:34.772Z,35.13
2019-05-01T05:15:21.834Z,32.53
2019-05-01T05:17:53.335Z,33.10
2019-05-01T05:20:24.053Z,33.92
2019-05-01T05:22:54.532Z,32.48
2019-05-01T05:25:24.936Z,33.18
2019-05-01T05:27:55.336Z,33.28
2019-05-01T05:30:26.825Z,32.33
2019-05-01T05:32:57.321Z,32.17
2019-05-01T05:35:28.210Z,31.30
2019-05-01T05:38:17.291Z,32.78
2019-05-01T05:40:47.640Z,32.10
2019-05-01T05:43:17.961Z,31.33
2019-05-01T05:45:48.133Z,32.13
2019-05-01T05:48:18.360Z,27.85
2019-05-01T05:51:19.711Z,24.98
2019-05-01T05:53:51.817Z,20.50
2019-05-01T05:56:26.409Z,20.48
2019-05-01T05:58:59.849Z,20.97
2019-05-01T06:01:59.284Z,19.45
2019-05-01T06:05:03.895Z,18.80
2019-05-01T06:07:40.178Z,15.83
2019-05-01T06:10:38.154Z,16.00
2019-05-01T06:13:21.927Z,20.10
2019-05-01T06:16:18.456Z,18.27
2019-05-01T06:19:19.560Z,20.10
2019-05-01T06:22:10.435Z,21.15
2019-05-01T06:24:42.633Z,20.23
2019-05-01T06:27:13.714Z,21.80
2019-05-01T06:29:45.336Z,20.62
2019-05-01T06:32:15.642Z,21.55
2019-05-01T06:34:46.156Z,20.50
2019-05-01T06:37:16.520Z,20.77
2019-05-01T06:39:47.860Z,20.35
2019-05-01T06:42:20.822Z,21.02
2019-05-01T06:44:56.592Z,21.55
2019-05-01T06:47:38.189Z,20.65
2019-05-01T06:50:31.955Z,19.85
2019-05-01T06:53:04.661Z,20.23
2019-05-01T06:55:35.025Z,19.00
2019-05-01T06:58:05.434Z,19.42
2019-05-01T07:00:39.245Z,18.27
2019-05-01T07:03:10.517Z,18.85
2019-05-01T07:05:40.655Z,17.37
2019-05-01T07:08:23.805Z,18.40
2019-05-01T07:10:45.726Z,15.88
2019-05-01T07:13:15.461Z,15.72
2019-05-01T07:15:45.862Z,17.05
2019-05-01T07:18:18.855Z,17.20
2019-05-01T07:20:53.295Z,17.25
2019-05-01T07:23:25.432Z,16.90
2019-05-01T07:25:55.924Z,17.10
2019-05-01T07:28:28.993Z,17.35
2019-05-01T07:31:06.349Z,17.73
2019-05-01T07:33:36.610Z,17.48
2019-05-01T07:36:14.995Z,17.62
2019-05-01T07:38:40.468Z,17.45
2019-05-01T07:41:12.468Z,17.27
2019-05-01T07:44:04.676Z,16.87
2019-05-01T07:46:48.916Z,16.02
2019-05-01T07:49:19.323Z,15.85
2019-05-01T07:51:53.381Z,16.15
2019-05-01T07:54:23.878Z,15.55
2019-05-01T07:56:54.285Z,16.35
2019-05-01T07:59:27.549Z,15.55
2019-05-01T08:02:05.074Z,15.90
2019-05-01T08:04:36.481Z,15.70
2019-05-01T08:07:07.076Z,15.30
2019-05-01T08:09:37.485Z,14.80
2019-05-01T08:12:07.729Z,15.50
2019-05-01T08:14:38.061Z,15.05
2019-05-01T08:17:12.810Z,14.30
2019-05-01T08:19:59.820Z,14.90
2019-05-01T08:22:37.161Z,14.40
2019-05-01T08:25:05.365Z,15.23
2019-05-01T08:27:50.918Z,15.18
2019-05-01T08:30:48.050Z,14.40
2019-05-01T08:33:35.170Z,14.93
2019-05-01T08:36:06.796Z,15.32
2019-05-01T08:38:39.162Z,14.47
2019-05-01T08:41:09.576Z,13.32
2019-05-01T08:43:40.140Z,14.43
2019-05-01T08:46:28.228Z,12.85
2019-05-01T08:49:24.416Z,13.30
2019-05-01T08:51:55.016Z,11.97
2019-05-01T08:54:28.866Z,12.68
2019-05-01T08:56:58.498Z,12.07
2019-05-01T08:59:29.596Z,12.03
2019-05-01T09:02:09.115Z,12.03
2019-05-01T09:04:32.399Z,12.07
2019-05-01T09:07:02.725Z,11.40
2019-05-01T09:09:33.466Z,11.63
2019-05-01T09:12:06.964Z,11.48
2019-05-01T09:14:36.826Z,12.00
2019-05-01T09:17:07.363Z,11.38
2019-05-01T09:19:37.808Z,11.35
2019-05-01T09:22:08.300Z,11.03
2019-05-01T09:24:38.929Z,11.63
2019-05-01T09:27:31.294Z,11.20
2019-05-01T09:30:04.632Z,11.10
2019-05-01T09:32:35.020Z,10.85
2019-05-01T09:35:15.367Z,10.95
2019-05-01T09:37:38.004Z,10.95
2019-05-01T09:40:09.111Z,11.53
2019-05-01T09:42:41.625Z,11.20
2019-05-01T09:45:12.145Z,11.05
2019-05-01T09:47:42.536Z,11.05
2019-05-01T09:50:13.018Z,11.15
2019-05-01T09:52:59.773Z,11.00
2019-05-01T09:55:43.965Z,10.80
2019-05-01T09:58:14.450Z,10.03
2019-05-01T10:00:48.725Z,10.53
2019-05-01T10:03:18.062Z,10.10
2019-05-01T10:05:48.432Z,9.88
2019-05-01T10:08:18.695Z,10.15
2019-05-01T10:10:49.274Z,9.95
2019-05-01T10:13:22.540Z,10.00
2019-05-01T10:15:51.821Z,10.28
2019-05-01T10:18:22.206Z,10.23
2019-05-01T10:20:52.622Z,10.15
2019-05-01T10:23:23.045Z,10.13
2019-05-01T10:25:56.079Z,9.55
2019-05-01T10:28:36.203Z,9.95
2019-05-01T10:31:14.515Z,10.60
2019-05-01T10:33:46.544Z,9.65
2019-05-01T10:36:36.503Z,9.75
2019-05-01T10:39:07.899Z,9.35
2019-05-01T10:41:41.089Z,9.73
2019-05-01T10:44:10.550Z,9.30
2019-05-01T10:46:41.031Z,9.28
2019-05-01T10:49:11.516Z,9.75
2019-05-01T10:51:41.978Z,12.53
2019-05-01T10:54:12.394Z,13.45
2019-05-01T10:56:42.921Z,13.95
2019-05-01T10:59:13.344Z,13.38
2019-05-01T11:01:56.098Z,21.35
2019-05-01T11:04:26.589Z,24.37
2019-05-01T11:06:56.974Z,22.45
2019-05-01T11:09:27.403Z,23.92
2019-05-01T11:11:57.884Z,23.65
2019-05-01T11:14:28.218Z,28.38
2019-05-01T11:16:59.735Z,25.12
2019-05-01T11:19:30.406Z,28.75
2019-05-01T11:22:00.865Z,27.27
2019-05-01T11:24:34.494Z,26.65
2019-05-01T11:27:04.958Z,28.05
2019-05-01T11:29:37.240Z,26.37
2019-05-01T11:32:44.883Z,25.72
2019-05-01T11:35:49.404Z,25.50
2019-05-01T11:38:37.041Z,23.70
2019-05-01T11:41:11.756Z,24.57
2019-05-01T11:43:42.300Z,24.70
2019-05-01T11:46:15.881Z,24.55
2019-05-01T11:48:46.321Z,25.00
2019-05-01T11:51:16.874Z,24.67
2019-05-01T11:53:47.387Z,23.92
2019-05-01T11:56:17.868Z,24.12
2019-05-01T11:58:48.303Z,20.00
2019-05-01T12:01:20.358Z,20.12
2019-05-01T12:03:50.913Z,17.65
2019-05-01T12:06:22.927Z,16.02
2019-05-01T12:08:53.677Z,15.35
2019-05-01T12:11:26.192Z,14.45
2019-05-01T12:13:56.605Z,13.18
2019-05-01T12:16:44.981Z,12.70
2019-05-01T12:19:15.587Z,14.78
2019-05-01T12:21:45.859Z,14.95
2019-05-01T12:24:16.345Z,13.88
2019-05-01T12:26:46.769Z,14.45
2019-05-01T12:29:17.260Z,13.75
2019-05-01T12:31:47.644Z,13.40
2019-05-01T12:34:18.159Z,13.32
2019-05-01T12:36:49.321Z,12.98
2019-05-01T12:39:19.646Z,11.68
2019-05-01T12:41:57.002Z,10.63
2019-05-01T12:44:27.449Z,10.80
2019-05-01T12:47:12.356Z,11.85
2019-05-01T12:49:44.006Z,11.88
2019-05-01T12:52:21.832Z,11.35
2019-05-01T12:55:03.716Z,10.28
2019-05-01T12:57:34.324Z,10.65
2019-05-01T13:00:08.883Z,10.38
2019-05-01T13:02:37.541Z,9.78
2019-05-01T13:05:08.023Z,9.35
2019-05-01T13:07:38.355Z,8.40
2019-05-01T13:10:08.741Z,7.87
2019-05-01T13:12:39.322Z,8.03
2019-05-01T13:15:09.662Z,8.73
2019-05-01T13:17:40.009Z,7.62
2019-05-01T13:20:10.550Z,7.05
2019-05-01T13:22:41.153Z,7.22
2019-05-01T13:25:11.476Z,7.05
2019-05-01T13:27:49.077Z,6.25
2019-05-01T13:30:31.712Z,6.17
2019-05-01T13:33:02.302Z,5.95
2019-05-01T13:35:33.657Z,5.55
2019-05-01T13:38:04.095Z,5.17
2019-05-01T13:40:34.414Z,5.08
2019-05-01T13:43:04.986Z,5.80
2019-05-01T13:45:35.444Z,4.90
2019-05-01T13:48:05.929Z,5.03
2019-05-01T13:50:37.294Z,5.47
2019-05-01T13:53:07.717Z,4.67
2019-05-01T13:55:39.289Z,4.90
2019-05-01T13:58:10.329Z,4.50
2019-05-01T14:00:40.658Z,4.75
2019-05-01T14:03:11.063Z,4.58
2019-05-01T14:05:41.427Z,4.40
2019-05-01T14:08:11.951Z,4.45
2019-05-01T14:10:42.519Z,4.35
2019-05-01T14:13:13.965Z,4.37
2019-05-01T14:15:44.297Z,4.35
2019-05-01T14:18:14.574Z,4.28
2019-05-01T14:20:57.877Z,4.72
2019-05-01T14:23:56.409Z,4.10
2019-05-01T14:26:26.753Z,4.05
2019-05-01T14:28:57.038Z,4.08
2019-05-01T14:31:27.482Z,4.20
2019-05-01T14:33:57.863Z,3.70
2019-05-01T14:36:28.136Z,4.00
2019-05-01T14:38:58.502Z,4.60
2019-05-01T14:41:28.734Z,4.72
2019-05-01T14:43:58.982Z,6.58
2019-05-01T14:46:29.718Z,9.05
2019-05-01T14:49:00.010Z,9.20
2019-05-01T14:51:30.398Z,9.05
2019-05-01T14:54:00.803Z,9.53
2019-05-01T14:56:36.160Z,9.30
2019-05-01T14:59:06.588Z,8.88
2019-05-01T15:01:37.021Z,8.13
2019-05-01T15:04:09.711Z,8.40
2019-05-01T15:06:40.093Z,7.97
2019-05-01T15:09:11.472Z,7.15
2019-05-01T15:11:42.981Z,7.12
2019-05-01T15:14:44.503Z,6.90
2019-05-01T15:17:26.330Z,7.17
2019-05-01T15:20:01.818Z,6.83
2019-05-01T15:22:33.802Z,7.35
2019-05-01T15:25:04.275Z,6.90
2019-05-01T15:27:34.606Z,6.67
2019-05-01T15:30:05.546Z,6.00
2019-05-01T15:32:36.050Z,6.12
2019-05-01T15:35:06.422Z,6.40
2019-05-01T15:37:36.924Z,8.13
2019-05-01T15:40:20.740Z,8.38
2019-05-01T15:43:23.826Z,9.18
2019-05-01T15:45:55.115Z,9.20
2019-05-01T15:48:25.439Z,8.20
2019-05-01T15:50:55.924Z,8.15
2019-05-01T15:53:26.250Z,7.12
2019-05-01T15:55:56.949Z,7.60
2019-05-01T15:58:27.290Z,7.42
2019-05-01T16:00:57.696Z,7.83
2019-05-01T16:03:28.051Z,8.00
2019-05-01T16:05:59.592Z,7.97
2019-05-01T16:08:30.036Z,8.50
2019-05-01T16:11:09.747Z,8.00
2019-05-01T16:13:40.113Z,7.17
2019-05-01T16:16:10.471Z,7.75
2019-05-01T16:18:40.966Z,7.87
2019-05-01T16:21:11.294Z,7.87
2019-05-01T16:23:41.702Z,7.50
2019-05-01T16:26:11.988Z,7.78
2019-05-01T16:28:42.390Z,7.58
2019-05-01T16:31:12.859Z,7.85
2019-05-01T16:33:43.280Z,8.78
2019-05-01T16:36:13.808Z,8.23
2019-05-01T16:38:57.899Z,9.13
2019-05-01T16:41:28.551Z,10.75
2019-05-01T16:43:59.068Z,9.55
2019-05-01T16:46:29.371Z,7.30
2019-05-01T16:48:59.773Z,7.78
2019-05-01T16:51:30.114Z,7.12
2019-05-01T16:54:00.495Z,7.37
2019-05-01T16:56:33.046Z,5.62
2019-05-01T16:59:03.905Z,4.90
2019-05-01T17:01:55.758Z,5.20
2019-05-01T17:04:35.346Z,5.35
2019-05-01T17:07:24.720Z,5.00
2019-05-01T17:10:13.916Z,5.03
2019-05-01T17:12:49.709Z,6.25
2019-05-01T17:15:44.853Z,5.47
2019-05-01T17:18:16.742Z,6.00
2019-05-01T17:20:47.097Z,6.80
2019-05-01T17:23:18.608Z,6.45
2019-05-01T17:25:50.255Z,6.10
2019-05-01T17:28:21.301Z,6.25
2019-05-01T17:30:59.289Z,6.42
2019-05-01T17:33:30.562Z,5.90
2019-05-01T17:36:01.003Z,6.00
2019-05-01T17:38:31.860Z,6.12
2019-05-01T17:41:02.551Z,7.40
2019-05-01T17:43:33.048Z,6.83
2019-05-01T17:46:05.872Z,6.72
2019-05-01T17:48:35.774Z,7.15
2019-05-01T17:51:06.371Z,6.97
2019-05-01T17:53:37.100Z,6.00
2019-05-01T17:56:10.038Z,6.30
2019-05-01T17:58:40.042Z,6.12
2019-05-01T18:01:42.784Z,6.00
2019-05-01T18:04:26.815Z,5.60
2019-05-01T18:06:57.496Z,5.95
2019-05-01T18:09:28.011Z,5.80
2019-05-01T18:11:58.524Z,5.53
2019-05-01T18:14:30.278Z,5.58
2019-05-01T18:17:01.057Z,6.25
2019-05-01T18:19:31.637Z,5.78
2019-05-01T18:22:21.920Z,5.53
2019-05-01T18:25:10.466Z,5.33
2019-05-01T18:28:06.555Z,4.70
2019-05-01T18:30:40.552Z,5.45
2019-05-01T18:33:11.270Z,5.00
2019-05-01T18:35:44.858Z,4.83
2019-05-01T18:38:24.203Z,4.85
2019-05-01T18:41:02.084Z,4.58
2019-05-01T18:43:33.949Z,4.62
2019-05-01T18:46:08.104Z,4.60
2019-05-01T18:48:38.825Z,6.35
2019-05-01T18:51:09.531Z,7.70
2019-05-01T18:53:40.205Z,8.00
2019-05-01T18:56:10.738Z,7.90
2019-05-01T18:58:41.164Z,7.42
2019-05-01T19:01:11.655Z,7.40
2019-05-01T19:03:44.052Z,8.28
2019-05-01T19:06:14.714Z,7.92
2019-05-01T19:08:45.302Z,8.20
2019-05-01T19:11:15.811Z,8.13
2019-05-01T19:13:46.399Z,7.33
2019-05-01T19:16:16.959Z,10.35
2019-05-01T19:18:50.788Z,12.23
2019-05-01T19:21:23.897Z,12.75
2019-05-01T19:23:54.685Z,13.75
2019-05-01T19:26:24.955Z,16.30
2019-05-01T19:28:55.641Z,14.28
2019-05-01T19:31:27.832Z,13.48
2019-05-01T19:34:00.655Z,12.73
2019-05-01T19:36:31.122Z,13.05
2019-05-01T19:39:06.944Z,13.00
2019-05-01T19:41:37.336Z,12.55
2019-05-01T19:44:07.887Z,12.90
2019-05-01T19:46:38.202Z,13.53
2019-05-01T19:49:08.486Z,12.05
2019-05-01T19:51:38.833Z,12.45
2019-05-01T19:54:09.137Z,12.60
2019-05-01T19:56:39.357Z,11.85
2019-05-01T19:59:09.877Z,12.33
2019-05-01T20:01:44.610Z,11.80
2019-05-01T20:04:15.010Z,11.75
2019-05-01T20:06:44.974Z,11.48
2019-05-01T20:09:15.736Z,11.88
2019-05-01T20:11:46.089Z,11.73
2019-05-01T20:14:16.400Z,11.05
2019-05-01T20:16:46.765Z,13.30
2019-05-01T20:19:17.392Z,13.35
2019-05-01T20:21:47.765Z,14.53
2019-05-01T20:24:19.323Z,16.10
2019-05-01T20:26:49.753Z,15.78
2019-05-01T20:29:20.215Z,16.48
2019-05-01T20:31:54.229Z,17.57
2019-05-01T20:34:24.622Z,18.00
2019-05-01T20:36:54.810Z,17.70
2019-05-01T20:39:25.075Z,17.27
2019-05-01T20:41:55.412Z,18.87
2019-05-01T20:44:26.077Z,19.37
2019-05-01T20:46:58.479Z,18.87
2019-05-01T20:49:28.375Z,19.17
2019-05-01T20:51:58.642Z,19.02
2019-05-01T20:54:28.858Z,20.05
2019-05-01T20:57:13.533Z,20.32
2019-05-01T20:59:42.749Z,21.17
2019-05-01T21:02:13.121Z,22.52
2019-05-01T21:05:11.334Z,23.70
2019-05-01T21:07:52.108Z,24.87
2019-05-01T21:10:25.312Z,27.82
2019-05-01T21:12:55.840Z,27.85
2019-05-01T21:15:26.796Z,28.32
2019-05-01T21:17:57.123Z,28.23
2019-05-01T21:20:28.617Z,27.58
2019-05-01T21:22:58.902Z,28.10
2019-05-01T21:25:29.157Z,28.75
2019-05-01T21:27:59.400Z,29.55
2019-05-01T21:30:29.646Z,28.75
2019-05-01T21:33:08.127Z,28.83
2019-05-01T21:35:34.009Z,29.48
2019-05-01T21:38:03.921Z,30.45
2019-05-01T21:40:40.756Z,29.48
2019-05-01T21:43:06.999Z,30.40
2019-05-01T21:45:37.168Z,30.65
2019-05-01T21:48:07.424Z,30.37
2019-05-01T21:50:37.804Z,31.35
2019-05-01T21:53:08.060Z,29.37
2019-05-01T21:55:38.340Z,31.75
2019-05-01T21:58:09.521Z,30.37
2019-05-01T22:00:40.531Z,30.55
2019-05-01T22:03:16.668Z,31.48
2019-05-01T22:05:44.359Z,30.85
2019-05-01T22:08:14.673Z,30.23
2019-05-01T22:10:51.801Z,32.15
2019-05-01T22:13:20.303Z,31.12
2019-05-01T22:15:54.449Z,31.07
2019-05-01T22:18:32.616Z,30.92
2019-05-01T22:21:24.761Z,30.85
2019-05-01T22:24:16.693Z,30.80
2019-05-01T22:26:56.089Z,30.37
2019-05-01T22:29:32.240Z,30.52
2019-05-01T22:32:23.719Z,30.60
2019-05-01T22:34:58.763Z,30.05
2019-05-01T22:37:29.008Z,31.75
2019-05-01T22:40:10.525Z,30.97
2019-05-01T22:42:40.795Z,31.20
2019-05-01T22:45:19.405Z,32.00
2019-05-01T22:47:50.861Z,29.92
2019-05-01T22:50:21.644Z,30.27
2019-05-01T22:52:51.888Z,30.48
2019-05-01T22:55:25.223Z,30.62
2019-05-01T22:57:54.041Z,29.25
2019-05-01T23:00:42.619Z,30.45
2019-05-01T23:03:19.368Z,29.50
2019-05-01T23:05:49.549Z,29.07
2019-05-01T23:08:19.777Z,30.08
2019-05-01T23:10:49.952Z,29.23
2019-05-01T23:13:20.173Z,29.27
2019-05-01T23:15:51.502Z,29.55
2019-05-01T23:18:22.347Z,28.80
2019-05-01T23:20:53.591Z,29.07
2019-05-01T23:23:23.933Z,28.73
2019-05-01T23:25:54.205Z,28.60
2019-05-01T23:28:24.541Z,28.77
2019-05-01T23:30:54.896Z,28.45
2019-05-01T23:33:25.195Z,28.65
2019-05-01T23:35:55.775Z,28.40
2019-05-01T23:38:25.986Z,28.32
2019-05-01T23:40:56.239Z,27.85
2019-05-01T23:43:27.879Z,28.57
2019-05-01T23:46:00.643Z,27.85
2019-05-01T23:48:32.796Z,28.10
2019-05-01T23:51:03.081Z,27.87
2019-05-01T23:53:34.234Z,27.02
2019-05-01T23:56:04.440Z,27.95
2019-05-01T23:58:34.625Z,27.45
